createdAt,value
2018-05-11T00:00:29.403Z,35.30
2018-05-11T00:01:07.643Z,35.00
2018-05-11T00:01:43.094Z,38.10
2018-05-11T00:02:18.475Z,35.90
2018-05-11T00:02:54.221Z,37.20
2018-05-11T00:03:29.691Z,39.80
2018-05-11T00:04:05.379Z,43.00
2018-05-11T00:04:41.586Z,45.00
2018-05-11T00:05:17.047Z,44.40
2018-05-11T00:05:52.296Z,44.20
2018-05-11T00:06:27.813Z,45.60
2018-05-11T00:07:03.039Z,50.90
2018-05-11T00:07:38.825Z,45.10
2018-05-11T00:08:13.999Z,39.80
2018-05-11T00:08:49.454Z,42.40
2018-05-11T00:09:24.712Z,42.00
2018-05-11T00:09:59.685Z,41.20
2018-05-11T00:10:35.063Z,45.50
2018-05-11T00:11:10.331Z,47.20
2018-05-11T00:11:45.550Z,40.90
2018-05-11T00:12:20.679Z,38.60
2018-05-11T00:12:55.905Z,39.00
2018-05-11T00:13:31.380Z,37.30
2018-05-11T00:14:06.734Z,44.70
2018-05-11T00:14:42.153Z,53.90
2018-05-11T00:15:17.299Z,53.90
2018-05-11T00:15:53.063Z,49.30
2018-05-11T00:16:28.601Z,48.00
2018-05-11T00:17:03.883Z,46.80
2018-05-11T00:17:39.414Z,45.10
2018-05-11T00:18:14.839Z,44.30
2018-05-11T00:18:51.032Z,36.60
2018-05-11T00:19:26.597Z,40.60
2018-05-11T00:20:01.851Z,39.90
2018-05-11T00:20:37.590Z,41.00
2018-05-11T00:21:13.478Z,45.90
2018-05-11T00:21:48.995Z,43.40
2018-05-11T00:22:24.385Z,41.90
2018-05-11T00:22:59.899Z,38.80
2018-05-11T00:23:35.289Z,39.70
2018-05-11T00:24:10.650Z,42.40
2018-05-11T00:24:45.982Z,44.00
2018-05-11T00:25:21.438Z,43.60
2018-05-11T00:25:56.778Z,47.60
2018-05-11T00:26:32.001Z,40.70
2018-05-11T00:27:07.437Z,39.60
2018-05-11T00:27:45.155Z,40.50
2018-05-11T00:28:21.152Z,37.30
2018-05-11T00:28:56.241Z,41.90
2018-05-11T00:29:31.601Z,40.20
2018-05-11T00:30:06.976Z,38.80
2018-05-11T00:30:43.629Z,42.40
2018-05-11T00:31:18.796Z,39.40
2018-05-11T00:31:54.142Z,40.10
2018-05-11T00:32:29.612Z,40.00
2018-05-11T00:33:05.190Z,37.60
2018-05-11T00:33:40.281Z,37.60
2018-05-11T00:34:15.383Z,44.50
2018-05-11T00:34:51.060Z,41.00
2018-05-11T00:35:26.609Z,38.90
2018-05-11T00:36:01.981Z,39.40
2018-05-11T00:36:38.656Z,39.00
2018-05-11T00:37:14.218Z,39.60
2018-05-11T00:37:49.686Z,42.60
2018-05-11T00:38:25.083Z,43.20
2018-05-11T00:39:00.920Z,46.60
2018-05-11T00:39:36.261Z,46.60
2018-05-11T00:40:11.686Z,44.40
2018-05-11T00:40:48.803Z,41.90
2018-05-11T00:41:24.544Z,40.70
2018-05-11T00:42:00.008Z,38.70
2018-05-11T00:42:35.313Z,36.40
2018-05-11T00:43:10.700Z,45.20
2018-05-11T00:43:46.034Z,46.00
2018-05-11T00:44:21.517Z,43.40
2018-05-11T00:44:57.154Z,43.50
2018-05-11T00:45:32.436Z,43.80
2018-05-11T00:46:08.059Z,46.30
2018-05-11T00:46:43.395Z,39.80
2018-05-11T00:47:18.600Z,42.20
2018-05-11T00:47:54.188Z,46.80
2018-05-11T00:48:29.937Z,46.30
2018-05-11T00:49:05.330Z,40.20
2018-05-11T00:49:40.788Z,43.10
2018-05-11T00:50:16.053Z,44.60
2018-05-11T00:50:51.242Z,43.90
2018-05-11T00:51:26.425Z,47.20
2018-05-11T00:52:02.284Z,47.80
2018-05-11T00:52:37.837Z,45.90
2018-05-11T00:53:13.010Z,43.50
2018-05-11T00:53:48.388Z,43.60
2018-05-11T00:54:23.921Z,48.70
2018-05-11T00:54:59.245Z,48.30
2018-05-11T00:55:34.625Z,47.60
2018-05-11T00:56:09.753Z,46.10
2018-05-11T00:56:45.176Z,46.60
2018-05-11T00:57:20.461Z,49.80
2018-05-11T00:57:55.979Z,50.00
2018-05-11T00:58:31.680Z,47.70
2018-05-11T00:59:07.172Z,47.30
2018-05-11T00:59:43.002Z,48.00
2018-05-11T01:00:18.232Z,49.90
2018-05-11T01:00:56.250Z,46.00
2018-05-11T01:01:31.857Z,45.80
2018-05-11T01:02:07.822Z,49.50
2018-05-11T01:02:43.277Z,41.10
2018-05-11T01:03:18.917Z,47.30
2018-05-11T01:03:54.209Z,43.50
2018-05-11T01:04:29.591Z,38.50
2018-05-11T01:05:05.335Z,41.40
2018-05-11T01:05:40.975Z,42.60
2018-05-11T01:06:16.159Z,47.50
2018-05-11T01:06:51.716Z,45.00
2018-05-11T01:07:27.289Z,44.20
2018-05-11T01:08:02.763Z,42.30
2018-05-11T01:08:38.071Z,41.40
2018-05-11T01:09:15.555Z,47.30
2018-05-11T01:09:50.827Z,47.20
2018-05-11T01:10:26.066Z,51.50
2018-05-11T01:11:01.079Z,45.40
2018-05-11T01:11:36.408Z,45.20
2018-05-11T01:12:11.927Z,50.60
2018-05-11T01:12:49.220Z,44.70
2018-05-11T01:13:24.569Z,46.10
2018-05-11T01:13:59.702Z,45.80
2018-05-11T01:14:35.116Z,43.20
2018-05-11T01:15:10.476Z,39.90
2018-05-11T01:15:46.440Z,41.90
2018-05-11T01:16:22.270Z,43.80
2018-05-11T01:16:57.761Z,43.90
2018-05-11T01:17:33.134Z,47.00
2018-05-11T01:18:08.829Z,52.30
2018-05-11T01:18:44.462Z,43.70
2018-05-11T01:19:20.353Z,41.90
2018-05-11T01:19:55.639Z,39.60
2018-05-11T01:20:31.218Z,44.50
2018-05-11T01:21:06.805Z,50.50
2018-05-11T01:21:44.001Z,47.90
2018-05-11T01:22:19.521Z,47.80
2018-05-11T01:22:54.789Z,47.80
2018-05-11T01:23:30.218Z,49.50
2018-05-11T01:24:05.734Z,45.30
2018-05-11T01:24:42.193Z,51.60
2018-05-11T01:25:17.752Z,48.40
2018-05-11T01:25:53.018Z,43.40
2018-05-11T01:26:28.564Z,43.90
2018-05-11T01:27:03.928Z,42.40
2018-05-11T01:27:39.059Z,49.80
2018-05-11T01:28:15.130Z,43.60
2018-05-11T01:28:51.121Z,45.10
2018-05-11T01:29:26.355Z,46.40
2018-05-11T01:30:02.155Z,52.60
2018-05-11T01:30:38.066Z,50.30
2018-05-11T01:31:13.245Z,44.30
2018-05-11T01:31:51.078Z,38.50
2018-05-11T01:32:26.677Z,49.50
2018-05-11T01:33:02.201Z,48.40
2018-05-11T01:33:37.744Z,45.40
2018-05-11T01:34:13.214Z,46.80
2018-05-11T01:34:51.543Z,49.10
2018-05-11T01:35:27.060Z,46.40
2018-05-11T01:36:03.654Z,50.60
2018-05-11T01:36:39.237Z,48.70
2018-05-11T01:37:14.485Z,56.50
2018-05-11T01:37:50.711Z,65.40
2018-05-11T01:38:26.063Z,59.90
2018-05-11T01:39:01.509Z,51.00
2018-05-11T01:39:36.800Z,49.60
2018-05-11T01:40:12.072Z,52.10
2018-05-11T01:40:51.135Z,55.40
2018-05-11T01:41:27.119Z,49.20
2018-05-11T01:42:02.356Z,51.20
2018-05-11T01:42:37.707Z,45.70
2018-05-11T01:43:13.040Z,46.80
2018-05-11T01:43:48.523Z,50.40
2018-05-11T01:44:23.644Z,53.00
2018-05-11T01:44:59.068Z,51.70
2018-05-11T01:45:34.462Z,53.50
2018-05-11T01:46:09.910Z,49.50
2018-05-11T01:46:45.116Z,49.40
2018-05-11T01:47:20.476Z,55.00
2018-05-11T01:47:55.706Z,48.80
2018-05-11T01:48:31.157Z,44.20
2018-05-11T01:49:06.556Z,44.30
2018-05-11T01:49:41.781Z,52.20
2018-05-11T01:50:17.034Z,56.00
2018-05-11T01:50:52.053Z,47.50
2018-05-11T01:51:27.650Z,44.80
2018-05-11T01:52:02.944Z,49.20
2018-05-11T01:52:38.215Z,51.20
2018-05-11T01:53:13.673Z,55.90
2018-05-11T01:53:49.065Z,54.30
2018-05-11T01:54:24.587Z,53.20
2018-05-11T01:54:59.883Z,59.00
2018-05-11T01:55:35.310Z,59.10
2018-05-11T01:56:10.926Z,61.70
2018-05-11T01:56:46.391Z,62.50
2018-05-11T01:57:21.735Z,63.20
2018-05-11T01:57:57.179Z,64.70
2018-05-11T01:58:32.452Z,63.30
2018-05-11T01:59:07.818Z,61.00
2018-05-11T01:59:43.202Z,57.50
2018-05-11T02:00:18.856Z,60.90
2018-05-11T02:00:56.272Z,60.00
2018-05-11T02:01:31.918Z,66.40
2018-05-11T02:02:07.528Z,65.20
2018-05-11T02:02:42.844Z,57.50
2018-05-11T02:03:18.176Z,57.20
2018-05-11T02:03:53.553Z,63.20
2018-05-11T02:04:28.779Z,62.20
2018-05-11T02:05:03.953Z,61.50
2018-05-11T02:05:39.512Z,61.80
2018-05-11T02:06:14.859Z,56.50
2018-05-11T02:06:50.748Z,58.10
2018-05-11T02:07:26.271Z,56.60
2018-05-11T02:08:01.693Z,64.80
2018-05-11T02:08:37.532Z,60.80
2018-05-11T02:09:12.638Z,68.20
2018-05-11T02:09:47.923Z,62.70
2018-05-11T02:10:23.185Z,60.30
2018-05-11T02:10:59.018Z,62.40
2018-05-11T02:11:35.548Z,58.90
2018-05-11T02:12:10.880Z,64.80
2018-05-11T02:12:46.291Z,64.40
2018-05-11T02:13:21.705Z,63.60
2018-05-11T02:13:56.892Z,69.30
2018-05-11T02:14:32.312Z,62.50
2018-05-11T02:15:07.549Z,62.20
2018-05-11T02:15:43.826Z,65.90
2018-05-11T02:16:20.560Z,58.40
2018-05-11T02:16:55.953Z,64.30
2018-05-11T02:17:31.384Z,65.00
2018-05-11T02:18:06.999Z,59.00
2018-05-11T02:18:42.524Z,63.00
2018-05-11T02:19:17.728Z,72.70
2018-05-11T02:19:53.273Z,70.40
2018-05-11T02:20:28.706Z,63.50
2018-05-11T02:21:04.047Z,61.20
2018-05-11T02:21:39.363Z,64.40
2018-05-11T02:22:14.656Z,69.20
2018-05-11T02:22:50.044Z,71.20
2018-05-11T02:23:25.571Z,63.00
2018-05-11T02:24:01.355Z,66.30
2018-05-11T02:24:37.524Z,62.00
2018-05-11T02:25:12.904Z,57.40
2018-05-11T02:25:48.422Z,53.50
2018-05-11T02:26:23.782Z,50.60
2018-05-11T02:26:59.043Z,54.30
2018-05-11T02:27:34.480Z,55.70
2018-05-11T02:28:09.846Z,54.60
2018-05-11T02:28:45.204Z,56.50
2018-05-11T02:29:20.692Z,57.20
2018-05-11T02:29:56.174Z,59.60
2018-05-11T02:30:31.416Z,59.50
2018-05-11T02:31:07.185Z,59.10
2018-05-11T02:31:43.525Z,58.60
2018-05-11T02:32:18.765Z,54.90
2018-05-11T02:32:53.892Z,59.50
2018-05-11T02:33:29.583Z,59.00
2018-05-11T02:34:05.613Z,63.30
2018-05-11T02:34:41.393Z,65.00
2018-05-11T02:35:16.680Z,62.40
2018-05-11T02:35:52.088Z,56.50
2018-05-11T02:36:27.524Z,52.20
2018-05-11T02:37:03.084Z,60.10
2018-05-11T02:37:38.923Z,64.00
2018-05-11T02:38:14.746Z,57.90
2018-05-11T02:38:50.184Z,58.80
2018-05-11T02:39:25.313Z,64.80
2018-05-11T02:40:00.323Z,63.80
2018-05-11T02:40:35.612Z,63.30
2018-05-11T02:41:11.073Z,60.90
2018-05-11T02:41:46.486Z,54.40
2018-05-11T02:42:21.833Z,55.50
2018-05-11T02:42:57.280Z,62.70
2018-05-11T02:43:32.989Z,65.70
2018-05-11T02:44:08.619Z,62.90
2018-05-11T02:44:44.348Z,61.10
2018-05-11T02:45:19.819Z,56.10
2018-05-11T02:45:55.355Z,65.90
2018-05-11T02:46:30.573Z,63.70
2018-05-11T02:47:05.696Z,57.70
2018-05-11T02:47:40.971Z,64.00
2018-05-11T02:48:16.414Z,66.40
2018-05-11T02:48:51.939Z,66.30
2018-05-11T02:49:27.635Z,59.30
2018-05-11T02:50:03.074Z,58.10
2018-05-11T02:50:40.084Z,63.20
2018-05-11T02:51:15.639Z,58.80
2018-05-11T02:51:50.968Z,65.80
2018-05-11T02:52:26.438Z,73.00
2018-05-11T02:53:01.819Z,67.70
2018-05-11T02:53:36.881Z,66.20
2018-05-11T02:54:12.323Z,63.00
2018-05-11T02:54:47.461Z,65.90
2018-05-11T02:55:23.099Z,71.80
2018-05-11T02:55:58.330Z,65.10
2018-05-11T02:56:33.819Z,59.90
2018-05-11T02:57:09.175Z,60.10
2018-05-11T02:57:45.655Z,60.40
2018-05-11T02:58:21.294Z,64.20
2018-05-11T02:58:56.696Z,62.90
2018-05-11T02:59:32.336Z,57.00
2018-05-11T03:00:07.956Z,59.30
2018-05-11T03:00:44.323Z,60.80
2018-05-11T03:01:19.741Z,59.60
2018-05-11T03:01:55.212Z,59.00
2018-05-11T03:02:30.581Z,59.40
2018-05-11T03:03:06.834Z,54.70
2018-05-11T03:03:42.392Z,56.20
2018-05-11T03:04:17.710Z,61.60
2018-05-11T03:04:53.100Z,60.80
2018-05-11T03:05:28.453Z,58.30
2018-05-11T03:06:04.165Z,58.60
2018-05-11T03:06:39.967Z,55.10
2018-05-11T03:07:15.090Z,63.20
2018-05-11T03:07:50.758Z,65.80
2018-05-11T03:08:26.443Z,67.90
2018-05-11T03:09:01.802Z,64.50
2018-05-11T03:09:37.451Z,60.40
2018-05-11T03:10:12.717Z,60.70
2018-05-11T03:10:50.769Z,61.80
2018-05-11T03:11:26.225Z,54.70
2018-05-11T03:12:01.570Z,50.70
2018-05-11T03:12:38.593Z,52.40
2018-05-11T03:13:14.167Z,49.80
2018-05-11T03:13:49.393Z,54.50
2018-05-11T03:14:24.919Z,54.40
2018-05-11T03:15:00.264Z,52.20
2018-05-11T03:15:36.211Z,55.60
2018-05-11T03:16:11.533Z,62.00
2018-05-11T03:16:46.749Z,60.30
2018-05-11T03:17:22.332Z,58.40
2018-05-11T03:17:58.014Z,51.10
2018-05-11T03:18:33.628Z,54.50
2018-05-11T03:19:09.043Z,56.20
2018-05-11T03:19:44.414Z,50.70
2018-05-11T03:20:19.950Z,57.10
2018-05-11T03:20:55.321Z,59.90
2018-05-11T03:21:31.279Z,61.20
2018-05-11T03:22:08.406Z,60.80
2018-05-11T03:22:44.246Z,60.40
2018-05-11T03:23:19.810Z,61.00
2018-05-11T03:23:55.208Z,57.60
2018-05-11T03:24:30.532Z,64.50
2018-05-11T03:25:05.716Z,60.40
2018-05-11T03:25:42.385Z,58.00
2018-05-11T03:26:18.085Z,58.80
2018-05-11T03:26:53.269Z,59.10
2018-05-11T03:27:28.851Z,60.80
2018-05-11T03:28:04.178Z,57.50
2018-05-11T03:28:39.918Z,54.40
2018-05-11T03:29:15.549Z,54.20
2018-05-11T03:29:50.842Z,56.10
2018-05-11T03:30:26.453Z,54.00
2018-05-11T03:31:02.002Z,57.30
2018-05-11T03:31:37.757Z,58.80
2018-05-11T03:32:13.291Z,56.70
2018-05-11T03:32:48.888Z,54.20
2018-05-11T03:33:24.347Z,56.20
2018-05-11T03:33:59.726Z,56.30
2018-05-11T03:34:35.075Z,62.50
2018-05-11T03:35:10.432Z,61.00
2018-05-11T03:35:46.170Z,59.50
2018-05-11T03:36:21.571Z,57.00
2018-05-11T03:36:57.099Z,56.40
2018-05-11T03:37:32.476Z,52.80
2018-05-11T03:38:08.136Z,52.40
2018-05-11T03:38:43.957Z,56.70
2018-05-11T03:39:19.920Z,55.70
2018-05-11T03:39:55.043Z,53.80
2018-05-11T03:40:30.321Z,53.20
2018-05-11T03:41:05.670Z,61.20
2018-05-11T03:41:41.043Z,59.60
2018-05-11T03:42:16.194Z,56.90
2018-05-11T03:42:51.522Z,51.30
2018-05-11T03:43:26.832Z,51.20
2018-05-11T03:44:02.233Z,46.90
2018-05-11T03:44:37.631Z,46.30
2018-05-11T03:45:13.011Z,50.40
2018-05-11T03:45:50.122Z,52.10
2018-05-11T03:46:25.404Z,54.00
2018-05-11T03:47:00.788Z,56.60
2018-05-11T03:47:36.028Z,59.50
2018-05-11T03:48:11.738Z,62.50
2018-05-11T03:48:47.638Z,57.20
2018-05-11T03:49:23.214Z,63.30
2018-05-11T03:50:00.470Z,65.50
2018-05-11T03:50:36.201Z,64.90
2018-05-11T03:51:12.119Z,61.70
2018-05-11T03:51:47.586Z,56.50
2018-05-11T03:52:23.032Z,60.70
2018-05-11T03:52:58.472Z,58.60
2018-05-11T03:53:33.660Z,63.00
2018-05-11T03:54:09.063Z,68.20
2018-05-11T03:54:44.954Z,59.00
2018-05-11T03:55:20.376Z,58.50
2018-05-11T03:55:55.569Z,60.40
2018-05-11T03:56:31.026Z,60.80
2018-05-11T03:57:06.121Z,59.20
2018-05-11T03:57:41.645Z,59.30
2018-05-11T03:58:17.189Z,58.60
2018-05-11T03:58:52.619Z,55.60
2018-05-11T03:59:28.148Z,60.80
2018-05-11T04:00:03.425Z,57.40
2018-05-11T04:00:39.440Z,58.00
2018-05-11T04:01:15.211Z,55.00
2018-05-11T04:01:50.471Z,52.70
2018-05-11T04:02:25.945Z,57.70
2018-05-11T04:03:01.557Z,55.90
2018-05-11T04:03:37.182Z,53.20
2018-05-11T04:04:12.677Z,49.40
2018-05-11T04:04:48.553Z,59.40
2018-05-11T04:05:24.021Z,62.40
2018-05-11T04:05:59.453Z,58.80
2018-05-11T04:06:34.653Z,55.80
2018-05-11T04:07:09.909Z,50.00
2018-05-11T04:07:45.242Z,52.00
2018-05-11T04:08:20.758Z,60.50
2018-05-11T04:08:56.142Z,62.40
2018-05-11T04:09:31.520Z,63.60
2018-05-11T04:10:06.975Z,56.70
2018-05-11T04:10:43.580Z,52.20
2018-05-11T04:11:18.940Z,53.80
2018-05-11T04:11:54.394Z,57.60
2018-05-11T04:12:30.084Z,46.80
2018-05-11T04:13:05.584Z,47.40
2018-05-11T04:13:41.157Z,47.30
2018-05-11T04:14:17.643Z,47.40
2018-05-11T04:14:53.249Z,46.90
2018-05-11T04:15:28.840Z,49.00
2018-05-11T04:16:04.459Z,51.00
2018-05-11T04:16:39.793Z,48.10
2018-05-11T04:17:15.168Z,52.60
2018-05-11T04:17:50.503Z,53.80
2018-05-11T04:18:26.234Z,54.60
2018-05-11T04:19:01.492Z,47.30
2018-05-11T04:19:36.678Z,49.10
2018-05-11T04:20:11.967Z,51.80
2018-05-11T04:20:47.364Z,51.70
2018-05-11T04:21:22.916Z,50.80
2018-05-11T04:21:58.351Z,53.30
2018-05-11T04:22:33.862Z,56.40
2018-05-11T04:23:09.103Z,51.30
2018-05-11T04:23:44.290Z,51.10
2018-05-11T04:24:19.777Z,54.30
2018-05-11T04:24:55.162Z,56.10
2018-05-11T04:25:30.730Z,55.30
2018-05-11T04:26:05.878Z,51.50
2018-05-11T04:26:41.393Z,48.30
2018-05-11T04:27:17.744Z,50.40
2018-05-11T04:27:53.092Z,49.50
2018-05-11T04:28:28.560Z,49.80
2018-05-11T04:29:04.192Z,54.60
2018-05-11T04:29:40.579Z,56.90
2018-05-11T04:30:16.026Z,55.90
2018-05-11T04:30:51.574Z,64.30
2018-05-11T04:31:26.816Z,66.70
2018-05-11T04:32:02.056Z,63.70
2018-05-11T04:32:37.580Z,59.80
2018-05-11T04:33:13.226Z,62.50
2018-05-11T04:33:48.661Z,56.00
2018-05-11T04:34:24.085Z,53.00
2018-05-11T04:34:59.297Z,52.90
2018-05-11T04:35:35.160Z,53.70
2018-05-11T04:36:11.051Z,57.50
2018-05-11T04:36:46.606Z,62.30
2018-05-11T04:37:21.938Z,55.20
2018-05-11T04:37:57.440Z,52.30
2018-05-11T04:38:32.905Z,54.20
2018-05-11T04:39:08.000Z,47.30
2018-05-11T04:39:43.665Z,51.80
2018-05-11T04:40:19.007Z,56.20
2018-05-11T04:40:55.095Z,56.30
2018-05-11T04:41:30.405Z,56.70
2018-05-11T04:42:05.762Z,62.10
2018-05-11T04:42:41.023Z,51.10
2018-05-11T04:43:16.716Z,50.80
2018-05-11T04:43:52.254Z,44.80
2018-05-11T04:44:27.549Z,46.40
2018-05-11T04:45:05.101Z,49.90
2018-05-11T04:45:40.309Z,50.20
2018-05-11T04:46:15.685Z,48.80
2018-05-11T04:46:52.044Z,47.10
2018-05-11T04:47:27.480Z,45.70
2018-05-11T04:48:03.398Z,49.00
2018-05-11T04:48:38.616Z,49.30
2018-05-11T04:49:13.734Z,46.00
2018-05-11T04:49:49.201Z,42.50
2018-05-11T04:50:24.468Z,48.20
2018-05-11T04:50:59.867Z,51.10
2018-05-11T04:51:34.972Z,48.50
2018-05-11T04:52:10.452Z,47.50
2018-05-11T04:52:45.921Z,44.50
2018-05-11T04:53:21.559Z,47.20
2018-05-11T04:53:56.955Z,44.50
2018-05-11T04:54:32.410Z,42.30
2018-05-11T04:55:08.204Z,48.70
2018-05-11T04:55:43.945Z,40.80
2018-05-11T04:56:19.308Z,41.20
2018-05-11T04:56:55.128Z,41.90
2018-05-11T04:57:30.468Z,43.50
2018-05-11T04:58:05.872Z,46.40
2018-05-11T04:58:41.154Z,43.70
2018-05-11T04:59:16.679Z,41.20
2018-05-11T04:59:52.184Z,40.60
2018-05-11T05:00:27.689Z,38.60
2018-05-11T05:01:07.439Z,46.10
2018-05-11T05:01:42.742Z,43.60
2018-05-11T05:02:18.302Z,43.50
2018-05-11T05:02:56.038Z,41.30
2018-05-11T05:03:31.350Z,41.70
2018-05-11T05:04:06.487Z,43.30
2018-05-11T05:04:41.964Z,44.00
2018-05-11T05:05:17.766Z,40.90
2018-05-11T05:05:53.262Z,39.00
2018-05-11T05:06:28.661Z,39.30
2018-05-11T05:07:04.173Z,43.40
2018-05-11T05:07:42.647Z,47.60
2018-05-11T05:08:18.162Z,43.20
2018-05-11T05:08:53.599Z,41.10
2018-05-11T05:09:29.254Z,39.90
2018-05-11T05:10:04.426Z,36.90
2018-05-11T05:10:43.063Z,34.90
2018-05-11T05:11:18.319Z,41.60
2018-05-11T05:11:53.797Z,40.90
2018-05-11T05:12:29.212Z,39.50
2018-05-11T05:13:04.735Z,38.50
2018-05-11T05:13:40.311Z,41.80
2018-05-11T05:14:15.861Z,44.30
2018-05-11T05:14:51.362Z,39.20
2018-05-11T05:15:26.711Z,40.10
2018-05-11T05:16:04.172Z,42.80
2018-05-11T05:16:39.411Z,41.60
2018-05-11T05:17:16.552Z,42.70
2018-05-11T05:17:53.781Z,43.40
2018-05-11T05:18:29.393Z,49.90
2018-05-11T05:19:04.957Z,47.60
2018-05-11T05:19:41.816Z,43.70
2018-05-11T05:20:17.205Z,51.70
2018-05-11T05:22:53.841Z,49.10
2018-05-11T05:23:29.402Z,45.60
2018-05-11T05:24:05.113Z,45.90
2018-05-11T05:24:40.650Z,49.80
2018-05-11T05:25:18.805Z,48.00
2018-05-11T05:25:57.446Z,55.70
2018-05-11T05:26:33.170Z,52.40
2018-05-11T05:27:10.126Z,49.30
2018-05-11T05:27:45.437Z,49.20
2018-05-11T05:28:21.091Z,49.10
2018-05-11T05:28:58.584Z,47.60
2018-05-11T05:29:33.826Z,50.10
2018-05-11T05:30:11.358Z,46.50
2018-05-11T05:30:46.670Z,48.20
2018-05-11T05:31:22.284Z,49.70
2018-05-11T05:31:59.906Z,47.20
2018-05-11T05:32:36.296Z,44.60
2018-05-11T05:33:11.609Z,42.40
2018-05-11T05:33:46.827Z,46.30
2018-05-11T05:34:22.060Z,44.60
2018-05-11T05:34:57.349Z,46.30
2018-05-11T05:35:32.563Z,50.10
2018-05-11T05:36:07.740Z,49.50
2018-05-11T05:39:23.121Z,47.20
2018-05-11T05:39:58.407Z,47.30
2018-05-11T05:40:33.501Z,53.70
2018-05-11T05:41:08.769Z,51.70
2018-05-11T05:41:43.838Z,48.70
2018-05-11T05:42:19.155Z,45.10
2018-05-11T05:42:54.435Z,52.10
2018-05-11T05:43:29.802Z,48.70
2018-05-11T05:44:05.522Z,55.20
2018-05-11T05:44:42.191Z,60.30
2018-05-11T05:45:17.597Z,55.00
2018-05-11T05:45:53.208Z,56.30
2018-05-11T05:46:28.461Z,63.60
2018-05-11T05:47:03.894Z,64.10
2018-05-11T05:47:39.303Z,64.40
2018-05-11T05:48:14.541Z,70.60
2018-05-11T05:48:50.031Z,63.80
2018-05-11T05:49:25.313Z,69.20
2018-05-11T05:50:00.390Z,67.50
2018-05-11T05:50:35.534Z,62.70
2018-05-11T05:51:10.751Z,60.40
2018-05-11T05:51:46.144Z,62.80
2018-05-11T05:52:21.572Z,63.00
2018-05-11T05:52:57.217Z,56.70
2018-05-11T05:53:32.508Z,58.00
2018-05-11T05:54:08.123Z,63.20
2018-05-11T05:54:43.587Z,62.10
2018-05-11T05:55:18.751Z,66.70
2018-05-11T05:55:53.874Z,63.90
2018-05-11T05:56:29.193Z,66.30
2018-05-11T05:57:04.460Z,65.30
2018-05-11T05:57:39.911Z,69.20
2018-05-11T05:58:17.872Z,65.10
2018-05-11T05:58:53.243Z,64.60
2018-05-11T05:59:28.765Z,62.60
2018-05-11T06:00:04.013Z,62.80
2018-05-11T06:00:40.201Z,61.20
2018-05-11T06:01:16.484Z,62.50
2018-05-11T06:01:52.222Z,64.80
2018-05-11T06:02:28.038Z,60.10
2018-05-11T06:03:03.237Z,63.50
2018-05-11T06:03:38.858Z,57.50
2018-05-11T06:04:14.136Z,57.20
2018-05-11T06:04:49.612Z,57.30
2018-05-11T06:05:24.821Z,65.40
2018-05-11T06:05:59.971Z,67.60
2018-05-11T06:06:35.509Z,60.30
2018-05-11T06:07:11.387Z,69.50
2018-05-11T06:07:46.714Z,71.00
2018-05-11T06:08:22.181Z,70.90
2018-05-11T06:08:57.454Z,70.20
2018-05-11T06:09:32.909Z,64.90
2018-05-11T06:10:08.547Z,66.20
2018-05-11T06:10:44.786Z,74.30
2018-05-11T06:11:19.949Z,68.20
2018-05-11T06:11:55.275Z,66.50
2018-05-11T06:12:30.748Z,63.80
2018-05-11T06:13:06.213Z,58.70
2018-05-11T06:13:41.371Z,66.20
2018-05-11T06:14:16.958Z,62.40
2018-05-11T06:14:52.842Z,59.90
2018-05-11T06:15:28.359Z,58.40
2018-05-11T06:16:07.029Z,55.60
2018-05-11T06:16:42.384Z,52.80
2018-05-11T06:17:20.318Z,53.30
2018-05-11T06:17:57.728Z,54.20
2018-05-11T06:18:33.022Z,57.00
2018-05-11T06:19:08.658Z,58.30
2018-05-11T06:19:47.235Z,57.10
2018-05-11T06:20:22.604Z,55.10
2018-05-11T06:21:01.227Z,61.90
2018-05-11T06:21:38.381Z,62.10
2018-05-11T06:22:13.924Z,53.80
2018-05-11T06:22:49.382Z,58.80
2018-05-11T06:23:24.824Z,57.90
2018-05-11T06:24:00.198Z,53.90
2018-05-11T06:24:35.876Z,55.40
2018-05-11T06:25:15.343Z,54.90
2018-05-11T06:25:51.502Z,55.80
2018-05-11T06:26:26.942Z,61.80
2018-05-11T06:27:02.423Z,56.80
2018-05-11T06:27:37.969Z,52.00
2018-05-11T06:28:13.695Z,53.20
2018-05-11T06:28:49.107Z,53.30
2018-05-11T06:29:24.187Z,61.30
2018-05-11T06:29:59.850Z,64.30
2018-05-11T06:30:35.194Z,58.00
2018-05-11T06:31:10.543Z,60.20
2018-05-11T06:31:45.792Z,60.60
2018-05-11T06:32:21.166Z,61.50
2018-05-11T06:32:56.319Z,60.80
2018-05-11T06:33:31.681Z,56.30
2018-05-11T06:34:06.856Z,62.40
2018-05-11T06:34:43.064Z,65.90
2018-05-11T06:35:18.560Z,61.80
2018-05-11T06:35:53.867Z,53.20
2018-05-11T06:36:29.094Z,52.70
2018-05-11T06:37:04.647Z,53.30
2018-05-11T06:37:40.181Z,55.80
2018-05-11T06:38:15.628Z,56.80
2018-05-11T06:38:51.343Z,57.00
2018-05-11T06:39:26.635Z,56.80
2018-05-11T06:40:01.945Z,59.80
2018-05-11T06:40:37.537Z,63.00
2018-05-11T06:41:12.867Z,62.90
2018-05-11T06:41:48.452Z,61.70
2018-05-11T06:42:23.707Z,59.40
2018-05-11T06:42:59.276Z,61.10
2018-05-11T06:43:34.840Z,59.60
2018-05-11T06:44:10.327Z,53.30
2018-05-11T06:44:45.551Z,56.50
2018-05-11T06:45:21.062Z,61.10
2018-05-11T06:45:56.652Z,55.40
2018-05-11T06:46:31.986Z,55.60
2018-05-11T06:47:07.429Z,61.40
2018-05-11T06:47:43.422Z,62.00
2018-05-11T06:48:19.314Z,55.60
2018-05-11T06:48:55.209Z,64.30
2018-05-11T06:49:30.788Z,60.80
2018-05-11T06:50:06.207Z,54.40
2018-05-11T06:50:41.606Z,59.60
2018-05-11T06:51:16.971Z,54.30
2018-05-11T06:51:52.320Z,54.70
2018-05-11T06:52:27.944Z,60.70
2018-05-11T06:53:03.369Z,56.10
2018-05-11T06:53:38.502Z,53.90
2018-05-11T06:54:16.331Z,55.10
2018-05-11T06:54:51.400Z,51.90
2018-05-11T06:55:26.854Z,54.30
2018-05-11T06:56:02.340Z,54.60
2018-05-11T06:56:37.612Z,59.50
2018-05-11T06:57:12.887Z,52.40
2018-05-11T06:57:48.661Z,52.00
2018-05-11T06:58:24.091Z,57.70
2018-05-11T06:59:02.668Z,58.50
2018-05-11T06:59:38.331Z,50.60
2018-05-11T07:00:13.772Z,51.00
2018-05-11T07:00:49.499Z,49.50
2018-05-11T07:01:24.841Z,50.20
2018-05-11T07:02:02.588Z,55.50
2018-05-11T07:02:40.151Z,48.70
2018-05-11T07:03:17.164Z,53.10
2018-05-11T07:03:52.422Z,49.80
2018-05-11T07:04:27.585Z,48.60
2018-05-11T07:05:02.903Z,52.60
2018-05-11T07:05:38.437Z,52.90
2018-05-11T07:06:13.783Z,47.00
2018-05-11T07:06:49.272Z,42.00
2018-05-11T07:07:24.616Z,48.40
2018-05-11T07:07:59.973Z,53.40
2018-05-11T07:08:35.226Z,53.50
2018-05-11T07:09:10.335Z,46.40
2018-05-11T07:09:45.885Z,47.40
2018-05-11T07:10:21.313Z,49.60
2018-05-11T07:10:57.532Z,50.70
2018-05-11T07:11:33.168Z,51.10
2018-05-11T07:12:08.536Z,50.10
2018-05-11T07:12:43.903Z,49.80
2018-05-11T07:13:19.116Z,51.70
2018-05-11T07:13:54.610Z,50.90
2018-05-11T07:14:29.840Z,48.90
2018-05-11T07:15:05.463Z,49.90
2018-05-11T07:15:43.053Z,50.60
2018-05-11T07:16:18.511Z,47.10
2018-05-11T07:16:53.885Z,46.70
2018-05-11T07:17:29.233Z,56.00
2018-05-11T07:18:04.624Z,51.30
2018-05-11T07:18:40.136Z,45.90
2018-05-11T07:19:15.581Z,48.00
2018-05-11T07:19:50.875Z,52.00
2018-05-11T07:20:26.465Z,51.60
2018-05-11T07:21:01.775Z,55.90
2018-05-11T07:21:37.072Z,54.40
2018-05-11T07:22:12.525Z,48.70
2018-05-11T07:22:48.081Z,46.40
2018-05-11T07:23:23.537Z,49.00
2018-05-11T07:23:59.125Z,48.80
2018-05-11T07:24:34.666Z,48.50
2018-05-11T07:25:09.767Z,51.80
2018-05-11T07:25:45.395Z,49.70
2018-05-11T07:26:21.014Z,45.30
2018-05-11T07:26:57.387Z,43.50
2018-05-11T07:27:32.914Z,47.60
2018-05-11T07:28:08.397Z,43.70
2018-05-11T07:28:43.869Z,43.50
2018-05-11T07:29:19.369Z,45.10
2018-05-11T07:29:54.705Z,48.50
2018-05-11T07:30:30.333Z,45.80
2018-05-11T07:31:06.746Z,40.20
2018-05-11T07:31:42.055Z,41.20
2018-05-11T07:32:17.582Z,41.90
2018-05-11T07:32:52.844Z,42.90
2018-05-11T07:33:28.070Z,39.10
2018-05-11T07:34:03.472Z,37.90
2018-05-11T07:34:38.803Z,39.60
2018-05-11T07:35:14.230Z,41.30
2018-05-11T07:35:49.674Z,42.00
2018-05-11T07:36:25.022Z,40.00
2018-05-11T07:37:00.451Z,40.30
2018-05-11T07:37:35.874Z,39.50
2018-05-11T07:38:11.292Z,38.30
2018-05-11T07:38:46.713Z,42.10
2018-05-11T07:39:22.457Z,38.90
2018-05-11T07:39:57.784Z,37.70
2018-05-11T07:40:33.206Z,36.50
2018-05-11T07:41:08.647Z,37.10
2018-05-11T07:41:43.944Z,33.40
2018-05-11T07:42:19.680Z,34.80
2018-05-11T07:42:54.996Z,37.80
2018-05-11T07:43:30.820Z,39.20